Flight Track Log - Related Links

Times and Time Zones

All times are in EDT time to prevent confusion due to time zone crossing. See the UAL1493 flight status page for this flight to view local times or setup timezone preferences in your user account.

Time Position Orientation Groundspeed Altitude Reporting Facility
EDT Latitude Longitude Course Direction KTS MPH feet Rate Location/Type
Sat 11:13:06 AM 40.7333 -74.1500 323° Northwest 219 252 2,000  Level New York TRACON
Sat 11:14:06 AM 40.7833 -74.2167 315° West 253 291 5,000 3,050 Climbing New York TRACON
Sat 11:15:00 AM 40.8121 -74.7356 287° West  Level FlightAware Approximate
Sat 11:15:06 AM 40.8000 -74.3000 285° West 258 297 8,100  Level New York TRACON
Sat 11:16:00 AM 40.8454 -74.8798 287° West  Level FlightAware Approximate
Sat 11:16:12 AM 40.8167 -74.4167 281° West 298 343 10,400  Level New York TRACON
Sat 11:17:00 AM 40.8818 -75.0152 323° Northwest  Level FlightAware Approximate
Sat 11:17:06 AM 40.8333 -74.5167 282° West 351 404 11,700  Level New York TRACON
Sat 11:18:00 AM 40.9164 -75.1497 323° Northwest  Level FlightAware Approximate
Sat 11:18:06 AM 40.8500 -74.6500 279° West 379 436 14,000  Level New York TRACON
Sat 11:18:55 AM 40.8644 -74.7744 279° West 396 456 15,700 1,651 Climbing New York Center
Sat 11:19:55 AM 40.8828 -74.9072 280° West 396 456 17,000 1,091 Climbing New York Center
Sat 11:20:56 AM 40.9028 -75.0539 280° West 396 456 17,900 1,271 Climbing New York Center
Sat 11:21:53 AM 40.9100 -75.1917 274° West 410 472 19,500 2,103 Climbing New York Center
Sat 11:22:53 AM 40.8764 -75.3622 255° West 420 483 22,000 2,033 Climbing New York Center
Sat 11:23:54 AM 40.8392 -75.5189 253° West 425 489 23,600 1,587 Climbing New York Center
Sat 11:24:54 AM 40.7992 -75.6806 252° West 447 514 25,200 1,525 Climbing New York Center
Sat 11:25:56 AM 40.7608 -75.8450 253° West 462 532 26,700 1,412 Climbing New York Center
Sat 11:26:53 AM 40.7206 -76.0064 252° West 467 537 28,000 864 Climbing New York Center
Sat 11:27:54 AM 40.6797 -76.1728 252° West 473 544 28,400 1,091 Climbing New York Center
Sat 11:28:54 AM 40.6783 -76.3397 269° West 455 524 30,200 1,587 Climbing New York Center
Sat 11:29:55 AM 40.7039 -76.5033 282° West 455 524 31,600 1,289 Climbing New York Center
Sat 11:30:55 AM 40.7272 -76.6642 281° West 455 524 32,800 1,169 Climbing New York Center
Sat 11:31:53 AM 40.7503 -76.8250 281° West 455 524 33,900 600 Climbing New York Center
Sat 11:32:55 AM 40.7733 -76.9833 281° West 448 516 34,000 28 Climbing New York Center
Sat 11:35:24 AM 40.8311 -77.3806 281° West 448 516 34,000  Level Cleveland Center
Sat 11:36:24 AM 40.8436 -77.5281 276° West 448 516 34,000  Level Cleveland Center
Sat 11:37:24 AM 40.8542 -77.6925 275° West 448 516 34,000  Level Cleveland Center
Sat 11:38:24 AM 40.8642 -77.8539 275° West 448 516 34,000  Level Cleveland Center
Sat 11:39:24 AM 40.8742 -78.0156 275° West 448 516 34,000  Level Cleveland Center
Sat 11:40:24 AM 40.8819 -78.1772 274° West 448 516 34,000  Level Cleveland Center
Sat 11:41:24 AM 40.8961 -78.3553 276° West 443 510 34,000  Level Cleveland Center
Sat 11:42:24 AM 40.9033 -78.5172 273° West 443 510 34,000  Level Cleveland Center
Sat 11:43:24 AM 40.9122 -78.6764 274° West 443 510 34,000  Level Cleveland Center
Sat 11:44:24 AM 40.9211 -78.8353 274° West 443 510 34,000  Level Cleveland Center
Sat 11:45:24 AM 40.9297 -79.0000 274° West 443 510 34,000  Level Cleveland Center
Sat 11:46:24 AM 40.9381 -79.1619 274° West 443 510 34,000  Level Cleveland Center
Sat 11:47:24 AM 40.9442 -79.3242 273° West 443 510 34,000  Level Cleveland Center
Sat 11:48:24 AM 40.9519 -79.4833 274° West 443 510 34,000  Level Cleveland Center
Sat 11:49:24 AM 40.9597 -79.6456 274° West 443 510 34,000  Level Cleveland Center
Sat 11:50:24 AM 40.9672 -79.8106 273° West 443 510 34,000 50 Level Cleveland Center
Sat 11:51:24 AM 40.9744 -79.9725 273° West 443 510 34,100 400 Climbing Cleveland Center
Sat 11:52:24 AM 40.9794 -80.1403 272° West 443 510 34,800 750 Climbing Cleveland Center
Sat 11:53:24 AM 40.9861 -80.3025 273° West 448 516 35,600 600 Climbing Cleveland Center
Sat 11:54:24 AM 40.9947 -80.4703 274° West 448 516 36,000 200 Climbing Cleveland Center
Sat 11:55:24 AM 40.9989 -80.6381 272° West 454 522 36,000  Level Cleveland Center
Sat 11:56:24 AM 41.0072 -80.8033 274° West 459 528 36,000  Level Cleveland Center
Sat 11:57:24 AM 41.0108 -80.9683 272° West 459 528 36,000  Level Cleveland Center
Sat 11:58:24 AM 41.0144 -81.1333 272° West 454 522 36,000  Level Cleveland Center
Sat 11:59:24 AM 41.0175 -81.3042 271° West 460 529 36,000  Level Cleveland Center
Sat 12:00:24 PM 41.0225 -81.4692 272° West 459 528 36,000  Level Cleveland Center
Sat 12:01:24 PM 41.0275 -81.6344 272° West 459 528 36,000  Level Cleveland Center
Sat 12:02:24 PM 41.0319 -81.8053 272° West 459 528 36,000  Level Cleveland Center
Sat 12:03:24 PM 41.0367 -81.9567 272° West 459 528 36,000  Level Cleveland Center
Sat 12:04:24 PM 41.0406 -82.1275 272° West 459 528 36,000  Level Cleveland Center
Sat 12:05:24 PM 41.0444 -82.2956 272° West 459 528 36,000  Level Cleveland Center
Sat 12:06:24 PM 41.0461 -82.4636 271° West 459 528 36,000  Level Cleveland Center
Sat 12:07:24 PM 41.0511 -82.6481 272° West 459 528 36,000  Level Cleveland Center
Sat 12:08:24 PM 41.0542 -82.8217 271° West 459 528 36,000  Level Cleveland Center
Sat 12:09:24 PM 41.0550 -82.9869 270° West 453 521 36,000  Level Cleveland Center
Sat 12:10:24 PM 41.0575 -83.1578 271° West 462 532 36,000  Level Cleveland Center
Sat 12:11:24 PM 41.0639 -83.3233 273° West 462 532 36,000  Level Cleveland Center
Sat 12:12:24 PM 41.0658 -83.4997 271° West 468 539 36,000  Level Cleveland Center
Sat 12:13:24 PM 41.0683 -83.6514 271° West 468 539 36,000  Level Cleveland Center
Sat 12:14:24 PM 41.0694 -83.8278 271° West 468 539 36,000  Level Cleveland Center
Sat 12:15:24 PM 41.0689 -83.9986 270° West 468 539 36,000  Level Cleveland Center
Sat 12:16:24 PM 41.0697 -84.1722 270° West 468 539 36,000  Level Cleveland Center
Sat 12:17:35 PM 41.0703 -84.3683 270° West 472 543 36,000  Level Chicago Center
Sat 12:18:37 PM 41.0708 -84.5408 270° West 469 540 36,000  Level Chicago Center
Sat 12:19:39 PM 41.0711 -84.7492 270° West 470 541 36,000  Level Chicago Center
Sat 12:20:40 PM 41.0708 -84.9225 270° West 470 541 36,000  Level Chicago Center
Sat 12:21:42 PM 41.0703 -85.0992 270° West 475 547 36,000  Level Chicago Center
Sat 12:22:43 PM 41.0694 -85.2747 270° West 475 547 36,000  Level Chicago Center
Sat 12:23:45 PM 41.0681 -85.4525 269° West 478 550 36,000  Level Chicago Center
Sat 12:24:47 PM 41.0667 -85.6308 269° West 480 552 36,000  Level Chicago Center
Sat 12:25:48 PM 41.0653 -85.8061 269° West 477 549 36,000  Level Chicago Center
Sat 12:26:50 PM 41.0631 -85.9833 269° West 479 551 36,000  Level Chicago Center
Sat 12:27:52 PM 41.0611 -86.1606 269° West 480 552 36,000  Level Chicago Center
Sat 12:28:53 PM 41.0581 -86.3731 269° West 479 551 36,000  Level Chicago Center
Sat 12:29:55 PM 41.0544 -86.5483 268° West 477 549 36,000  Level Chicago Center
Sat 12:30:57 PM 41.0544 -86.7231 270° West 474 545 36,000  Level Chicago Center
Sat 12:31:58 PM 41.0511 -86.8886 269° West 476 548 36,000  Level Chicago Center
Sat 12:33:00 PM 41.0486 -87.0617 269° West 473 544 36,000  Level Chicago Center
Sat 12:34:02 PM 41.0433 -87.2725 268° West 477 549 36,000  Level Chicago Center
Sat 12:35:04 PM 41.0394 -87.4481 268° West 475 547 36,000  Level Chicago Center
Sat 12:36:05 PM 41.0347 -87.6258 268° West 482 555 36,000  Level Chicago Center
Sat 12:37:07 PM 41.0303 -87.8025 268° West 480 552 36,000  Level Chicago Center
Sat 12:38:09 PM 41.0256 -87.9819 268° West 483 556 36,000  Level Chicago Center
Sat 12:39:10 PM 41.0203 -88.1603 268° West 483 556 36,000  Level Chicago Center
Sat 12:40:12 PM 41.0150 -88.3381 268° West 481 554 36,000  Level Chicago Center
Sat 12:41:14 PM 41.0100 -88.5150 268° West 480 552 36,000  Level Chicago Center
Sat 12:42:16 PM 41.0022 -88.7247 267° West 477 549 36,000  Level Chicago Center
Sat 12:43:17 PM 40.9978 -88.8861 268° West 483 556 36,000  Level Chicago Center
Sat 12:44:19 PM 40.9911 -89.0614 267° West 481 554 36,000  Level Chicago Center
Sat 12:45:21 PM 40.9842 -89.2392 267° West 487 560 36,000  Level Chicago Center
Sat 12:46:23 PM 40.9772 -89.4136 267° West 481 554 36,000  Level Chicago Center
Sat 12:47:24 PM 40.9600 -89.6028 263° West 481 554 36,000  Level Chicago Center
Sat 12:48:26 PM 40.9419 -89.7781 262° West 484 557 36,000  Level Chicago Center
Sat 12:49:27 PM 40.9206 -89.9861 262° West 480 552 36,000  Level Chicago Center
Sat 12:50:29 PM 40.9025 -90.1628 262° West 482 555 36,000  Level Chicago Center
Sat 12:51:31 PM 40.8867 -90.3161 262° West 484 557 36,000  Level Chicago Center
Sat 12:52:32 PM 40.8642 -90.5283 262° West 487 560 36,000  Level Chicago Center
Sat 12:53:34 PM 40.8428 -90.7086 261° West 497 572 36,000  Level Chicago Center
Sat 12:54:36 PM 40.8231 -90.8850 262° West 492 566 36,000  Level Chicago Center
Sat 12:55:38 PM 40.8028 -91.0622 261° West 489 563 36,000  Level Chicago Center
Sat 12:56:39 PM 40.7825 -91.2392 261° West 489 563 36,000  Level Chicago Center
Sat 12:57:41 PM 40.7633 -91.4106 262° West 485 558 36,000  Level Chicago Center
Sat 12:58:43 PM 40.7389 -91.6189 261° West 484 557 36,000  Level Chicago Center
Sat 12:59:44 PM 40.7183 -91.7897 261° West 479 551 36,000  Level Chicago Center
Sat 01:00:46 PM 40.6978 -91.9597 261° West 475 547 36,000  Level Chicago Center
Sat 01:01:48 PM 40.6772 -92.1278 261° West 473 544 36,000  Level Chicago Center
Sat 01:02:49 PM 40.6567 -92.2942 261° West 468 539 36,000  Level Chicago Center
Sat 01:03:51 PM 40.6317 -92.4942 261° West 469 540 36,000  Level Chicago Center
Sat 01:04:25 PM 40.6236 -92.5597 261° West 468 539 36,000  Level Kansas City Center
Sat 01:05:27 PM 40.5986 -92.7542 260° West 461 531 36,000  Level Kansas City Center
Sat 01:06:28 PM 40.5767 -92.9178 260° West 454 522 36,000  Level Kansas City Center
Sat 01:07:30 PM 40.5567 -93.0744 261° West 452 520 36,000  Level Kansas City Center
Sat 01:08:31 PM 40.5356 -93.2356 260° West 453 521 36,000  Level Kansas City Center
Sat 01:09:33 PM 40.5125 -93.3989 260° West 457 526 36,000  Level Kansas City Center
Sat 01:10:19 PM 40.4928 -93.5286 259° West 458 527 36,000  Level Minneapolis Center
Sat 01:11:20 PM 40.4711 -93.6908 260° West 457 526 36,000  Level Minneapolis Center
Sat 01:12:22 PM 40.4439 -93.8875 260° West 458 527 36,000  Level Minneapolis Center
Sat 01:13:24 PM 40.4214 -94.0500 260° West 459 528 36,000  Level Minneapolis Center
Sat 01:14:25 PM 40.3975 -94.2133 259° West 459 528 36,000  Level Minneapolis Center
Sat 01:15:27 PM 40.3747 -94.3767 260° West 459 528 36,000  Level Minneapolis Center
Sat 01:16:28 PM 40.3506 -94.5389 259° West 458 527 36,000  Level Minneapolis Center
Sat 01:17:30 PM 40.3256 -94.7178 260° West 459 528 36,000  Level Minneapolis Center
Sat 01:18:32 PM 40.3022 -94.8814 259° West 456 525 36,000  Level Minneapolis Center
Sat 01:19:33 PM 40.2764 -95.0456 258° West 459 528 36,000  Level Minneapolis Center
Sat 01:20:35 PM 40.2542 -95.2069 260° West 453 521 36,000  Level Minneapolis Center
Sat 01:21:36 PM 40.2289 -95.3706 259° West 455 524 36,000  Level Minneapolis Center
Sat 01:22:38 PM 40.1994 -95.5639 259° West 451 519 36,000  Level Minneapolis Center
Sat 01:23:39 PM 40.1750 -95.7242 259° West 450 518 36,000  Level Minneapolis Center
Sat 01:24:41 PM 40.1500 -95.8847 259° West 449 517 36,000  Level Minneapolis Center
Sat 01:25:42 PM 40.1253 -96.0422 258° West 445 512 36,000  Level Minneapolis Center
Sat 01:26:44 PM 40.1053 -96.1675 258° West 442 509 36,000  Level Minneapolis Center
Sat 01:27:45 PM 40.0742 -96.3558 258° West 442 509 36,000  Level Minneapolis Center
Sat 01:28:47 PM 40.0492 -96.5117 258° West 440 506 36,000  Level Minneapolis Center
Sat 01:29:48 PM 40.0233 -96.6678 258° West 440 506 36,000  Level Minneapolis Center
Sat 01:30:50 PM 39.9978 -96.8239 258° West 440 506 36,000  Level Minneapolis Center
Sat 01:31:51 PM 39.9717 -96.9808 258° West 441 507 36,000  Level Minneapolis Center
Sat 01:32:53 PM 39.9403 -97.1689 258° West 441 507 36,000  Level Minneapolis Center
Sat 01:33:54 PM 39.9122 -97.3264 257° West 442 509 36,000  Level Minneapolis Center
Sat 01:34:56 PM 39.8856 -97.4847 258° West 445 512 36,000  Level Minneapolis Center
Sat 01:35:57 PM 39.8589 -97.6422 258° West 445 512 36,000  Level Minneapolis Center
Sat 01:36:59 PM 39.8317 -97.7978 257° West 443 510 36,000  Level Minneapolis Center
Sat 01:38:00 PM 39.8036 -97.9533 257° West 441 507 36,000  Level Minneapolis Center
Sat 01:39:02 PM 39.7769 -98.1094 258° West 441 507 36,000  Level Minneapolis Center
Sat 01:40:03 PM 39.7483 -98.2642 257° West 440 506 36,000  Level Minneapolis Center
Sat 01:41:05 PM 39.7211 -98.4175 257° West 437 503 36,000  Level Minneapolis Center
Sat 01:42:07 PM 39.6922 -98.5700 256° West 434 499 36,000  Level Minneapolis Center
Sat 01:43:08 PM 39.6639 -98.7244 257° West 437 503 36,000  Level Minneapolis Center
Sat 01:44:10 PM 39.6303 -98.9125 257° West 443 510 36,000  Level Minneapolis Center
Sat 01:45:11 PM 39.6003 -99.0681 256° West 443 510 36,000  Level Minneapolis Center
Sat 01:46:13 PM 39.5719 -99.2244 257° West 444 511 36,000  Level Minneapolis Center
Sat 01:47:15 PM 39.5419 -99.3800 256° West 445 512 36,000  Level Minneapolis Center
Sat 01:48:16 PM 39.5133 -99.5347 257° West 441 507 36,000  Level Minneapolis Center
Sat 01:49:18 PM 39.4839 -99.6867 256° West 437 503 36,000  Level Minneapolis Center
Sat 01:50:20 PM 39.4550 -99.8394 256° West 437 503 36,000  Level Minneapolis Center
Sat 01:51:21 PM 39.4247 -99.9903 255° West 436 502 36,000  Level Minneapolis Center
Sat 01:51:36 PM 39.4119 -100.0517 255° West 430 495 36,000  Level Denver Center
Sat 01:52:38 PM 39.3842 -100.1911 256° West 421 484 36,000  Level Denver Center
Sat 01:53:52 PM 39.3458 -100.3800 255° West 425 489 36,000  Level Denver Center
Sat 01:54:54 PM 39.3178 -100.5242 256° West 429 494 36,000  Level Denver Center
Sat 01:55:55 PM 39.2833 -100.6919 255° West 432 497 36,000  Level Denver Center
Sat 01:56:57 PM 39.2536 -100.8344 255° West 430 495 36,000  Level Denver Center
Sat 01:57:59 PM 39.2250 -100.9778 256° West 431 496 36,000  Level Denver Center
Sat 01:59:01 PM 39.1906 -101.1439 255° West 430 495 36,000  Level Denver Center
Sat 02:00:02 PM 39.1606 -101.2869 255° West 430 495 36,000  Level Denver Center
Sat 02:01:04 PM 39.1256 -101.4544 255° West 434 499 36,000  Level Denver Center
Sat 02:02:06 PM 39.0953 -101.5972 255° West 432 497 36,000  Level Denver Center
Sat 02:03:08 PM 39.0636 -101.7439 255° West 433 498 36,000  Level Denver Center
Sat 02:04:09 PM 39.0289 -101.9064 255° West 424 488 36,000  Level Denver Center
Sat 02:05:11 PM 38.9992 -102.0472 255° West 426 490 36,000  Level Denver Center
Sat 02:06:13 PM 38.9636 -102.2089 254° West 424 488 36,000  Level Denver Center
Sat 02:07:15 PM 38.9331 -102.3472 254° West 422 486 36,000 244 Level Denver Center
Sat 02:08:16 PM 38.8975 -102.5086 254° West 421 484 36,500 634 Climbing Denver Center
Sat 02:09:18 PM 38.8672 -102.6472 254° West 423 487 37,300 726 Climbing Denver Center
Sat 02:10:20 PM 38.8319 -102.8061 254° West 419 482 38,000 341 Climbing Denver Center
Sat 02:11:21 PM 38.7992 -102.9489 254° West 414 476 38,000  Level Denver Center
Sat 02:12:23 PM 38.7669 -103.0917 254° West 414 476 38,000  Level Denver Center
Sat 02:13:25 PM 38.7342 -103.2336 254° West 412 474 38,000  Level Denver Center
Sat 02:14:26 PM 38.7028 -103.3722 254° West 404 465 38,000  Level Denver Center
Sat 02:15:28 PM 38.6703 -103.5122 253° West 398 458 38,000  Level Denver Center
Sat 02:16:30 PM 38.6403 -103.6406 253° West 395 455 38,000  Level Denver Center
Sat 02:17:31 PM 38.6061 -103.7894 254° West 392 451 38,000  Level Denver Center
Sat 02:18:33 PM 38.5767 -103.9164 254° West 390 449 38,000  Level Denver Center
Sat 02:19:35 PM 38.5408 -104.0642 253° West 390 449 38,000  Level Denver Center
Sat 02:20:36 PM 38.5125 -104.1828 253° West 390 449 38,000  Level Denver Center
Sat 02:21:38 PM 38.4817 -104.3144 253° West 386 444 38,000  Level Denver Center
Sat 02:22:39 PM 38.4444 -104.4681 253° West 383 441 38,000  Level Denver Center
Sat 02:23:41 PM 38.4122 -104.6017 253° West 389 448 38,000  Level Denver Center
Sat 02:24:43 PM 38.3811 -104.7328 253° West 384 442 38,000  Level Denver Center
Sat 02:25:44 PM 38.3481 -104.8661 252° West 388 447 38,000  Level Denver Center
Sat 02:26:46 PM 38.3142 -105.0044 253° West 392 451 38,000  Level Denver Center
Sat 02:27:47 PM 38.2839 -105.1286 253° West 389 448 38,000  Level Denver Center
Sat 02:28:49 PM 38.2478 -105.2744 253° West 387 445 38,000  Level Denver Center
Sat 02:29:50 PM 38.2158 -105.3983 252° West 384 442 38,000  Level Denver Center
Sat 02:30:52 PM 38.1856 -105.5203 253° West 381 438 38,000  Level Denver Center
Sat 02:31:54 PM 38.1494 -105.6636 252° West 380 437 38,000  Level Denver Center
Sat 02:32:55 PM 38.1186 -105.7861 252° West 380 437 38,000  Level Denver Center
Sat 02:33:57 PM 38.0825 -105.9275 252° West 378 435 38,000  Level Denver Center
Sat 02:34:58 PM 38.0508 -106.0500 252° West 380 437 38,000  Level Denver Center
Sat 02:36:00 PM 38.0194 -106.1711 252° West 379 436 38,000  Level Denver Center
Sat 02:37:01 PM 37.9833 -106.3125 252° West 376 433 38,000  Level Denver Center
Sat 02:38:03 PM 37.9531 -106.4314 252° West 372 428 38,000  Level Denver Center
Sat 02:39:04 PM 37.9117 -106.5742 250° West 379 436 38,000  Level Denver Center
Sat 02:40:06 PM 37.8758 -106.6933 249° West 378 435 38,000  Level Denver Center
Sat 02:41:07 PM 37.8417 -106.8139 250° West 382 440 38,000  Level Denver Center
Sat 02:42:09 PM 37.8006 -106.9522 249° West 380 437 38,000  Level Denver Center
Sat 02:43:10 PM 37.7656 -107.0719 250° West 378 435 38,000  Level Denver Center
Sat 02:44:12 PM 37.7239 -107.2117 249° West 382 440 38,000  Level Denver Center
Sat 02:45:13 PM 37.6881 -107.3314 249° West 381 438 38,000  Level Denver Center
Sat 02:46:15 PM 37.6467 -107.4725 250° West 383 441 38,000  Level Denver Center
Sat 02:47:16 PM 37.6097 -107.5931 249° West 384 442 38,000  Level Denver Center
Sat 02:48:18 PM 37.5731 -107.7139 249° West 385 443 38,000  Level Denver Center
Sat 02:49:33 PM 37.5308 -107.8567 250° West 386 444 38,000  Level Denver Center
Sat 02:50:33 PM 37.4886 -107.9978 249° West 387 445 38,000  Level Denver Center
Sat 02:51:34 PM 37.4453 -108.1364 249° West 385 443 38,000  Level Denver Center
Sat 02:52:36 PM 37.4092 -108.2558 249° West 381 438 38,000  Level Denver Center
Sat 02:53:37 PM 37.3653 -108.3975 249° West 387 445 38,000  Level Denver Center
Sat 02:54:39 PM 37.3278 -108.5164 248° West 385 443 38,000  Level Denver Center
Sat 02:55:40 PM 37.2842 -108.6550 248° West 382 440 38,000  Level Denver Center
Sat 02:56:42 PM 37.2469 -108.7775 249° West 389 448 38,000  Level Denver Center
Sat 02:57:43 PM 37.2089 -108.8967 248° West 386 444 38,000  Level Denver Center
Sat 02:58:45 PM 37.1647 -109.0378 249° West 389 448 38,000  Level Denver Center
Sat 02:59:46 PM 37.1264 -109.1589 248° West 391 450 38,000  Level Denver Center
Sat 03:00:48 PM 37.0814 -109.3006 248° West 391 450 38,000  Level Denver Center
Sat 03:01:49 PM 37.0428 -109.4225 248° West 393 452 38,000  Level Denver Center
Sat 03:03:03 PM 36.9964 -109.5644 248° West 395 455 38,000  Level Denver Center
Sat 03:04:05 PM 36.9517 -109.7053 248° West 392 451 38,000  Level Denver Center
Sat 03:05:06 PM 36.9058 -109.8461 248° West 392 451 38,000  Level Denver Center
Sat 03:06:07 PM 36.8658 -109.9681 248° West 394 453 38,000  Level Denver Center
Sat 03:07:09 PM 36.8192 -110.1094 248° West 397 457 38,000  Level Denver Center
Sat 03:08:10 PM 36.7797 -110.2300 248° West 397 457 38,000  Level Denver Center
Sat 03:09:12 PM 36.7375 -110.3569 247° West 396 456 38,000  Level Denver Center
Sat 03:10:13 PM 36.6961 -110.4833 248° West 394 453 38,000  Level Denver Center
Sat 03:11:15 PM 36.6528 -110.6114 247° West 399 459 38,000  Level Denver Center
Sat 03:12:16 PM 36.6131 -110.7375 249° West 394 453 38,000  Level Denver Center
Sat 03:13:18 PM 36.5708 -110.8639 247° West 394 453 38,000  Level Denver Center
Sat 03:14:19 PM 36.5172 -111.0142 246° West 396 456 38,000  Level Denver Center
Sat 03:15:21 PM 36.4772 -111.1372 248° West 388 447 38,000  Level Denver Center
Sat 03:16:22 PM 36.4336 -111.2603 246° West 387 445 38,000  Level Denver Center
Sat 03:17:24 PM 36.3919 -111.3853 248° West 390 449 38,000  Level Denver Center
Sat 03:18:25 PM 36.3489 -111.5075 246° West 388 447 38,000  Level Denver Center
Sat 03:19:27 PM 36.3064 -111.6317 247° West 389 448 38,000  Level Denver Center
Sat 03:20:28 PM 36.2603 -111.7544 245° Southwest 391 450 38,000  Level Denver Center
Sat 03:21:30 PM 36.2139 -111.8781 245° Southwest 394 453 38,000  Level Denver Center
Sat 03:22:31 PM 36.1686 -112.0022 246° West 395 455 38,000  Level Denver Center
Sat 03:23:32 PM 36.1128 -112.1497 245° Southwest 395 455 38,000  Level Denver Center
Sat 03:23:47 PM 36.1089 -112.1606 246° West 397 457 38,000  Level Los Angeles Center
Sat 03:24:49 PM 36.0572 -112.2972 245° Southwest 390 449 38,000  Level Los Angeles Center
Sat 03:25:51 PM 36.0103 -112.4200 245° Southwest 393 452 38,000  Level Los Angeles Center
Sat 03:26:53 PM 35.9644 -112.5422 245° Southwest 393 452 38,000  Level Los Angeles Center
Sat 03:27:55 PM 35.9172 -112.6689 245° Southwest 392 451 38,000  Level Los Angeles Center
Sat 03:28:57 PM 35.8711 -112.7894 245° Southwest 392 451 38,000  Level Los Angeles Center
Sat 03:29:59 PM 35.8250 -112.9106 245° Southwest 394 453 38,000  Level Los Angeles Center
Sat 03:31:01 PM 35.7686 -113.0556 244° Southwest 395 455 38,000  Level Los Angeles Center
Sat 03:32:02 PM 35.7231 -113.1758 245° Southwest 394 453 38,000  Level Los Angeles Center
Sat 03:33:04 PM 35.6772 -113.2947 245° Southwest 391 450 38,000  Level Los Angeles Center
Sat 03:34:06 PM 35.6308 -113.4139 244° Southwest 391 450 38,000  Level Los Angeles Center
Sat 03:35:08 PM 35.5747 -113.5575 244° Southwest 393 452 38,000  Level Los Angeles Center
Sat 03:36:10 PM 35.5283 -113.6767 244° Southwest 392 451 38,000  Level Los Angeles Center
Sat 03:37:12 PM 35.4800 -113.7975 244° Southwest 397 457 38,000  Level Los Angeles Center
Sat 03:38:14 PM 35.4325 -113.9181 244° Southwest 395 455 38,000  Level Los Angeles Center
Sat 03:39:16 PM 35.3858 -114.0378 244° Southwest 395 455 38,000  Level Los Angeles Center
Sat 03:40:18 PM 35.3258 -114.1833 243° Southwest 397 457 38,000  Level Los Angeles Center
Sat 03:41:20 PM 35.2783 -114.3058 245° Southwest 398 458 38,000  Level Los Angeles Center
Sat 03:42:21 PM 35.2286 -114.4275 243° Southwest 399 459 38,000  Level Los Angeles Center
Sat 03:43:23 PM 35.1797 -114.5511 244° Southwest 402 463 38,000  Level Los Angeles Center
Sat 03:44:25 PM 35.1292 -114.6744 243° Southwest 405 466 38,000  Level Los Angeles Center
Sat 03:45:27 PM 35.0806 -114.7956 244° Southwest 399 459 38,000  Level Los Angeles Center
Sat 03:46:29 PM 35.0317 -114.9169 244° Southwest 397 457 38,000  Level Los Angeles Center
Sat 03:47:31 PM 34.9717 -115.0622 243° Southwest 399 459 38,000  Level Los Angeles Center
Sat 03:48:33 PM 34.9225 -115.1831 244° Southwest 398 458 38,000  Level Los Angeles Center
Sat 03:49:35 PM 34.8744 -115.3000 243° Southwest 388 447 38,000  Level Los Angeles Center
Sat 03:50:37 PM 34.8253 -115.4194 243° Southwest 392 451 38,000  Level Los Angeles Center
Sat 03:51:39 PM 34.7756 -115.5392 243° Southwest 394 453 38,000 -387 Level Los Angeles Center
Sat 03:52:41 PM 34.7231 -115.6628 243° Southwest 389 448 37,200 -871 Descending Los Angeles Center
Sat 03:53:43 PM 34.6753 -115.7794 244° Southwest 386 444 36,200 -968 Descending Los Angeles Center
Sat 03:54:45 PM 34.6289 -115.8922 243° Southwest 377 434 35,200 -1,008 Descending Los Angeles Center
Sat 03:55:48 PM 34.5817 -116.0017 242° Southwest 369 425 34,100 -1,008 Descending Los Angeles Center
Sat 03:56:50 PM 34.5256 -116.1350 243° Southwest 370 426 33,100 -829 Descending Los Angeles Center
Sat 03:57:51 PM 34.4850 -116.2314 243° Southwest 386 444 32,400 -919 Descending Los Angeles Center
Sat 03:58:54 PM 34.4228 -116.3764 243° Southwest 402 463 31,200 -1,056 Descending Los Angeles Center
Sat 03:59:56 PM 34.3731 -116.4942 243° Southwest 397 457 30,200 -1,210 Descending Los Angeles Center
Sat 04:00:58 PM 34.3244 -116.6086 243° Southwest 386 444 28,700 -1,790 Descending Los Angeles Center
Sat 04:02:00 PM 34.2767 -116.7181 242° Southwest 370 426 26,500 -2,032 Descending Los Angeles Center
Sat 04:03:02 PM 34.2311 -116.8242 243° Southwest 359 413 24,500 -2,129 Descending Los Angeles Center
Sat 04:04:04 PM 34.1786 -116.9456 242° Southwest 341 392 22,100 -2,129 Descending Los Angeles Center
Sat 04:05:06 PM 34.1350 -117.0467 242° Southwest 340 391 20,100 -1,887 Descending Los Angeles Center
Sat 04:06:08 PM 34.0833 -117.1500 239° Southwest 334 384 18,200 -1,967 Descending Southern California TRACON
Sat 04:07:08 PM 34.0500 -117.2500 248° West 325 374 16,100 -1,950 Descending Southern California TRACON
Sat 04:08:08 PM 34.0333 -117.3667 260° West 320 368 14,300 -1,850 Descending Southern California TRACON
Sat 04:09:08 PM 34.0333 -117.4667 270° West 316 364 12,400 -1,835 Descending Southern California TRACON
Sat 04:10:09 PM 34.0167 -117.5667 259° West 344 396 10,600 -1,140 Descending Southern California TRACON
Sat 04:11:09 PM 34.0167 -117.6667 270° West 272 313 10,100 -737 Descending Southern California TRACON
Sat 04:12:03 PM 34.0000 -117.7500 256° West 241 277 9,200 -1,100 Descending Southern California TRACON
Sat 04:13:09 PM 34.0000 -117.8333 270° West 243 280 7,900 -1,000 Descending Southern California TRACON
Sat 04:14:09 PM 33.9833 -117.9167 256° West 230 265 7,100 -950 Descending Southern California TRACON
Sat 04:15:09 PM 33.9833 -117.9833 270° West 208 239 6,000 -1,050 Descending Southern California TRACON
Sat 04:16:09 PM 33.9667 -118.0500 253° West 207 238 5,000 -750 Descending Southern California TRACON
Sat 04:17:09 PM 33.9667 -118.1167 270° West 199 229 4,500 -585 Descending Southern California TRACON
Sat 04:17:31 PM 33.9636 -118.1311 256° West 204 235 4,200 -857 Descending Los Angeles Center
Sat 04:18:33 PM 33.9572 -118.1958 263° West 198 228 3,300 -1,016 Descending Los Angeles Center
Sat 04:19:35 PM 33.9492 -118.2703 263° West 193 222 2,100 -994 Descending Los Angeles Center
Sat 04:21:10 PM 33.9333 -118.3500 257° West 165 190 700 -871 Descending Southern California TRACON
Sat 04:21:39 PM 33.9389 -118.3783 283° West 170 196 300 -828 Descending Los Angeles Center
Sat 04:23:00 PM 33.9333 -118.4000 259° West  Level FlightAware Approximate
Sat 04:30:00 PM 33.9425 -118.4081 259° West  Level Estimated

Login

Don't have an account? Register now (free) for customized features, flight alerts, and more!